createdAt,value
2022-11-17T00:00:10.707Z,78.30
2022-11-17T00:02:37.735Z,79.06
2022-11-17T00:05:04.781Z,80.01
2022-11-17T00:07:31.658Z,79.22
2022-11-17T00:09:58.535Z,78.80
2022-11-17T00:12:43.876Z,77.88
2022-11-17T00:15:10.814Z,78.15
2022-11-17T00:17:37.930Z,79.14
2022-11-17T00:20:24.373Z,78.19
2022-11-17T00:22:51.218Z,79.03
2022-11-17T00:25:17.958Z,79.60
2022-11-17T00:27:44.800Z,78.29
2022-11-17T00:30:31.706Z,78.61
2022-11-17T00:33:23.255Z,78.76
2022-11-17T00:35:54.740Z,78.93
2022-11-17T00:38:24.299Z,79.14
2022-11-17T00:40:51.109Z,78.92
2022-11-17T00:43:17.846Z,78.77
2022-11-17T00:45:44.547Z,79.39
2022-11-17T00:48:12.535Z,79.05
2022-11-17T00:50:39.312Z,80.99
2022-11-17T00:53:06.039Z,79.57
2022-11-17T00:55:33.006Z,79.46
2022-11-17T00:57:59.821Z,79.83
2022-11-17T01:00:26.616Z,80.00
2022-11-17T01:02:53.381Z,81.15
2022-11-17T01:05:20.148Z,81.23
2022-11-17T01:07:49.778Z,80.75
2022-11-17T01:10:16.646Z,81.54
2022-11-17T01:12:43.395Z,80.25
2022-11-17T01:15:10.708Z,80.30
2022-11-17T01:17:37.492Z,81.38
2022-11-17T01:20:04.724Z,81.01
2022-11-17T01:22:31.534Z,80.78
2022-11-17T01:24:58.384Z,80.49
2022-11-17T01:27:25.153Z,80.75
2022-11-17T01:29:51.875Z,82.17
2022-11-17T01:32:18.642Z,80.75
2022-11-17T01:34:45.373Z,80.75
2022-11-17T01:37:21.140Z,80.59
2022-11-17T01:39:49.487Z,80.26
2022-11-17T01:42:20.789Z,81.19
2022-11-17T01:44:56.134Z,80.84
2022-11-17T01:47:50.572Z,81.25
2022-11-17T01:50:45.987Z,81.38
2022-11-17T01:53:17.532Z,80.94
2022-11-17T01:55:50.565Z,79.97
2022-11-17T01:58:29.075Z,79.39
2022-11-17T02:00:56.029Z,82.12
2022-11-17T02:03:24.845Z,80.73
2022-11-17T02:06:00.760Z,80.03
2022-11-17T02:08:30.500Z,80.78
2022-11-17T02:10:58.581Z,79.57
2022-11-17T02:13:25.451Z,79.66
2022-11-17T02:16:14.328Z,80.28
2022-11-17T02:18:42.564Z,80.47
2022-11-17T02:21:37.699Z,80.34
2022-11-17T02:24:21.796Z,80.03
2022-11-17T02:27:06.825Z,80.42
2022-11-17T02:29:42.442Z,81.33
2022-11-17T02:32:50.321Z,82.11
2022-11-17T02:35:35.110Z,83.02
2022-11-17T02:38:18.932Z,83.51
2022-11-17T02:41:16.783Z,83.36
2022-11-17T02:44:10.794Z,83.92
2022-11-17T02:46:51.078Z,83.98
2022-11-17T02:49:25.921Z,84.47
2022-11-17T02:51:57.062Z,84.13
2022-11-17T02:54:28.520Z,83.07
2022-11-17T02:56:55.503Z,81.16
2022-11-17T02:59:33.048Z,82.57
2022-11-17T03:02:41.684Z,81.26
2022-11-17T03:05:41.103Z,82.44
2022-11-17T03:08:33.286Z,81.93
2022-11-17T03:11:03.078Z,83.30
2022-11-17T03:13:48.152Z,84.53
2022-11-17T03:16:38.475Z,85.90
2022-11-17T03:19:31.595Z,86.39
2022-11-17T03:22:12.103Z,86.01
2022-11-17T03:24:43.872Z,84.22
2022-11-17T03:27:21.952Z,84.91
2022-11-17T03:29:53.800Z,85.89
2022-11-17T03:32:22.048Z,85.16
2022-11-17T03:34:58.696Z,88.25
2022-11-17T03:37:30.944Z,88.36
2022-11-17T03:40:03.142Z,88.65
2022-11-17T03:42:34.688Z,89.82
2022-11-17T03:45:20.290Z,90.55
2022-11-17T03:47:51.907Z,91.89
2022-11-17T03:50:36.516Z,90.82
2022-11-17T03:53:04.727Z,90.82
2022-11-17T03:55:56.534Z,90.06
2022-11-17T03:58:28.287Z,91.27
2022-11-17T04:00:58.886Z,91.52
2022-11-17T04:03:34.112Z,90.72
2022-11-17T04:06:01.769Z,92.29
2022-11-17T04:08:30.725Z,92.36
2022-11-17T04:11:16.602Z,91.98
2022-11-17T04:14:02.121Z,91.85
2022-11-17T04:16:30.181Z,92.16
2022-11-17T04:18:58.839Z,92.77
2022-11-17T04:21:26.318Z,93.67
2022-11-17T04:23:53.151Z,93.38
2022-11-17T04:26:38.691Z,93.83
2022-11-17T04:29:05.464Z,94.33
2022-11-17T04:31:32.375Z,94.72
2022-11-17T04:34:05.955Z,95.37
2022-11-17T04:36:36.897Z,95.66
2022-11-17T04:39:04.012Z,95.93
2022-11-17T04:41:49.695Z,96.08
2022-11-17T04:44:18.061Z,96.75
2022-11-17T04:46:46.192Z,96.82
2022-11-17T04:49:14.805Z,97.65
2022-11-17T04:51:42.255Z,98.29
2022-11-17T04:54:10.842Z,98.27
2022-11-17T04:56:38.282Z,98.20
2022-11-17T04:59:05.955Z,98.51
2022-11-17T05:01:32.880Z,98.67
2022-11-17T05:04:08.164Z,98.75
2022-11-17T05:06:44.094Z,98.76
2022-11-17T05:09:13.875Z,99.25
2022-11-17T05:11:59.759Z,99.56
2022-11-17T05:14:27.424Z,99.99
2022-11-17T05:17:09.896Z,100.00
2022-11-17T05:19:48.284Z,100.00
2022-11-17T05:22:39.859Z,100.00
2022-11-17T05:25:07.257Z,100.00
2022-11-17T05:27:34.869Z,100.00
2022-11-17T05:30:02.799Z,100.00
2022-11-17T05:32:30.768Z,100.00
2022-11-17T05:34:57.502Z,100.00
2022-11-17T05:37:24.301Z,100.00
2022-11-17T05:39:51.012Z,100.00
2022-11-17T05:42:17.757Z,100.00
2022-11-17T05:44:44.550Z,100.00
2022-11-17T05:47:11.289Z,100.00
2022-11-17T05:49:38.070Z,100.00
2022-11-17T05:52:05.103Z,100.00
2022-11-17T05:54:31.830Z,100.00
2022-11-17T05:56:58.559Z,100.00
2022-11-17T05:59:46.696Z,100.00
2022-11-17T06:02:18.977Z,100.00
2022-11-17T06:04:46.470Z,100.00
2022-11-17T06:07:13.473Z,100.00
2022-11-17T06:09:42.313Z,100.00
2022-11-17T06:12:09.462Z,100.00
2022-11-17T06:14:37.732Z,100.00
2022-11-17T06:17:33.340Z,100.00
2022-11-17T06:20:13.506Z,100.00
2022-11-17T06:22:45.419Z,100.00
2022-11-17T06:25:15.714Z,100.00
2022-11-17T06:27:42.812Z,100.00
2022-11-17T06:30:10.214Z,100.00
2022-11-17T06:32:40.224Z,100.00
2022-11-17T06:35:09.584Z,100.00
2022-11-17T06:37:36.306Z,100.00
2022-11-17T06:40:04.019Z,100.00
2022-11-17T06:42:49.837Z,100.00
2022-11-17T06:45:16.790Z,100.00
2022-11-17T06:47:43.506Z,99.63
2022-11-17T06:50:10.542Z,99.38
2022-11-17T06:52:38.671Z,99.80
2022-11-17T06:55:06.169Z,100.00
2022-11-17T06:57:32.896Z,100.00
2022-11-17T06:59:59.590Z,100.00
2022-11-17T07:02:27.058Z,100.00
2022-11-17T07:04:53.818Z,100.00
2022-11-17T07:07:20.609Z,100.00
2022-11-17T07:09:47.303Z,100.00
2022-11-17T07:12:14.112Z,100.00
2022-11-17T07:14:40.775Z,100.00
2022-11-17T07:17:07.687Z,100.00
2022-11-17T07:19:34.395Z,100.00
2022-11-17T07:22:01.049Z,99.71
2022-11-17T07:24:27.792Z,98.63
2022-11-17T07:26:54.443Z,97.85
2022-11-17T07:29:21.184Z,97.32
2022-11-17T07:31:47.858Z,96.77
2022-11-17T07:34:14.566Z,97.11
2022-11-17T07:36:41.305Z,97.12
2022-11-17T07:39:07.969Z,97.83
2022-11-17T07:41:34.656Z,97.73
2022-11-17T07:44:01.447Z,98.09
2022-11-17T07:46:28.094Z,97.44
2022-11-17T07:48:56.264Z,96.85
2022-11-17T07:51:22.980Z,96.77
2022-11-17T07:53:49.651Z,96.76
2022-11-17T07:56:16.698Z,96.43
2022-11-17T07:58:43.482Z,96.26
2022-11-17T08:01:15.628Z,96.54
2022-11-17T08:03:43.277Z,95.45
2022-11-17T08:06:10.259Z,94.46
2022-11-17T08:08:38.349Z,93.38
2022-11-17T08:11:10.421Z,93.91
2022-11-17T08:13:38.442Z,93.37
2022-11-17T08:16:06.502Z,92.80
2022-11-17T08:18:33.823Z,91.89
2022-11-17T08:21:18.975Z,92.16
2022-11-17T08:23:45.855Z,92.11
2022-11-17T08:26:12.574Z,92.33
2022-11-17T08:28:39.789Z,91.96
2022-11-17T08:31:08.701Z,91.62
2022-11-17T08:33:36.052Z,91.41
2022-11-17T08:36:04.670Z,91.51
2022-11-17T08:38:31.530Z,91.41
2022-11-17T08:41:07.074Z,91.49
2022-11-17T08:43:34.724Z,90.66
2022-11-17T08:46:02.603Z,90.85
2022-11-17T08:48:31.543Z,90.69
2022-11-17T08:50:58.668Z,90.28
2022-11-17T08:53:25.399Z,89.38
2022-11-17T08:55:52.273Z,88.03
2022-11-17T08:58:19.163Z,88.58
2022-11-17T09:00:47.321Z,88.53
2022-11-17T09:03:14.893Z,88.41
2022-11-17T09:05:47.190Z,87.93
2022-11-17T09:11:10.573Z,87.81
2022-11-17T09:13:38.397Z,87.93
2022-11-17T09:16:08.204Z,87.67
2022-11-17T09:18:36.961Z,87.87
2022-11-17T09:21:07.707Z,87.92
2022-11-17T09:23:35.027Z,87.27
2022-11-17T09:26:09.228Z,87.61
2022-11-17T09:28:36.281Z,87.03
2022-11-17T09:31:12.127Z,87.42
2022-11-17T09:33:39.503Z,87.25
2022-11-17T09:36:09.514Z,87.78
2022-11-17T09:38:37.904Z,87.96
2022-11-17T09:41:30.396Z,87.88
2022-11-17T09:44:15.718Z,87.48
2022-11-17T09:46:50.740Z,87.22
2022-11-17T09:49:59.481Z,87.39
2022-11-17T09:52:29.029Z,87.19
2022-11-17T09:55:01.439Z,86.77
2022-11-17T09:57:47.559Z,86.65
2022-11-17T10:00:19.978Z,86.09
2022-11-17T10:02:47.841Z,84.84
2022-11-17T10:05:26.617Z,84.70
2022-11-17T10:07:56.472Z,84.49
2022-11-17T10:10:48.155Z,84.96
2022-11-17T10:13:25.453Z,85.62
2022-11-17T10:15:57.633Z,86.42
2022-11-17T10:18:24.515Z,85.97
2022-11-17T10:20:51.328Z,86.14
2022-11-17T10:23:20.203Z,86.31
2022-11-17T10:25:55.818Z,86.23
2022-11-17T10:28:28.428Z,86.11
2022-11-17T10:31:16.215Z,85.95
2022-11-17T10:33:44.185Z,85.95
2022-11-17T10:36:31.871Z,87.24
2022-11-17T10:39:00.304Z,86.87
2022-11-17T10:41:50.442Z,87.29
2022-11-17T10:44:30.623Z,86.46
2022-11-17T10:47:08.286Z,87.08
2022-11-17T10:49:38.469Z,86.54
2022-11-17T10:52:09.847Z,86.28
2022-11-17T10:54:36.687Z,86.44
2022-11-17T10:57:09.146Z,86.53
2022-11-17T10:59:43.178Z,85.55
2022-11-17T11:02:31.360Z,86.17
2022-11-17T11:05:10.429Z,86.79
2022-11-17T11:07:38.127Z,85.86
2022-11-17T11:10:10.602Z,86.06
2022-11-17T11:13:10.655Z,85.90
2022-11-17T11:15:37.463Z,85.33
2022-11-17T11:18:18.261Z,84.61
2022-11-17T11:20:44.879Z,83.81
2022-11-17T11:23:41.371Z,84.00
2022-11-17T11:26:08.171Z,83.61
2022-11-17T11:29:05.607Z,82.94
2022-11-17T11:31:36.717Z,82.30
2022-11-17T11:34:16.032Z,83.17
2022-11-17T11:37:00.348Z,83.55
2022-11-17T11:40:00.611Z,83.75
2022-11-17T11:42:45.943Z,84.52
2022-11-17T11:45:24.314Z,85.08
2022-11-17T11:48:03.108Z,85.04
2022-11-17T11:50:41.476Z,85.71
2022-11-17T11:53:17.375Z,86.23
2022-11-17T11:55:46.957Z,86.06
2022-11-17T11:58:24.668Z,86.38
2022-11-17T12:01:02.175Z,85.59
2022-11-17T12:03:46.339Z,84.12
2022-11-17T12:06:42.996Z,84.41
2022-11-17T12:09:18.431Z,83.57
2022-11-17T12:12:01.323Z,83.43
2022-11-17T12:14:33.362Z,82.83
2022-11-17T12:17:26.203Z,83.58
2022-11-17T12:19:59.836Z,83.98
2022-11-17T12:22:29.245Z,83.75
2022-11-17T12:25:18.109Z,83.70
2022-11-17T12:27:48.598Z,82.57
2022-11-17T12:30:30.619Z,83.63
2022-11-17T12:32:58.291Z,84.09
2022-11-17T12:35:28.897Z,81.29
2022-11-17T12:38:14.171Z,81.34
2022-11-17T12:40:46.859Z,80.10
2022-11-17T12:43:19.407Z,80.37
2022-11-17T12:45:58.259Z,81.37
2022-11-17T12:48:35.882Z,81.89
2022-11-17T12:51:30.599Z,82.49
2022-11-17T12:54:18.367Z,82.97
2022-11-17T12:56:50.284Z,82.47
2022-11-17T12:59:19.994Z,83.17
2022-11-17T13:02:11.691Z,82.07
2022-11-17T13:04:49.725Z,80.93
2022-11-17T13:07:25.678Z,81.25
2022-11-17T13:09:57.377Z,81.11
2022-11-17T13:12:31.713Z,81.82
2022-11-17T13:15:02.628Z,81.55
2022-11-17T13:17:33.036Z,81.96
2022-11-17T13:20:02.349Z,80.43
2022-11-17T13:22:30.906Z,80.73
2022-11-17T13:24:58.026Z,80.12
2022-11-17T13:27:24.660Z,79.26
2022-11-17T13:29:52.404Z,79.45
2022-11-17T13:32:24.901Z,79.30
2022-11-17T13:34:56.721Z,78.80
2022-11-17T13:37:25.024Z,80.10
2022-11-17T13:40:02.951Z,77.90
2022-11-17T13:42:33.328Z,77.79
2022-11-17T13:45:02.563Z,78.65
2022-11-17T13:47:36.211Z,78.14
2022-11-17T13:50:33.680Z,77.79
2022-11-17T13:53:21.606Z,77.61
2022-11-17T13:55:49.034Z,77.18
2022-11-17T13:58:28.334Z,77.62
2022-11-17T14:01:00.017Z,77.96
2022-11-17T14:03:32.809Z,78.20
2022-11-17T14:05:59.597Z,77.82
2022-11-17T14:08:31.692Z,77.89
2022-11-17T14:11:10.583Z,78.66
2022-11-17T14:13:59.020Z,78.74
2022-11-17T14:16:37.615Z,78.51
2022-11-17T14:19:24.158Z,78.73
2022-11-17T14:22:09.829Z,79.16
2022-11-17T14:24:37.812Z,78.65
2022-11-17T14:27:34.936Z,78.74
2022-11-17T14:30:01.808Z,78.58
2022-11-17T14:32:30.002Z,78.67
2022-11-17T14:34:57.893Z,78.46
2022-11-17T14:37:25.684Z,78.58
2022-11-17T14:39:52.320Z,78.35
2022-11-17T14:42:19.005Z,78.85
2022-11-17T14:44:45.678Z,78.99
2022-11-17T14:47:12.395Z,78.99
2022-11-17T14:49:39.051Z,79.43
2022-11-17T14:52:05.737Z,79.47
2022-11-17T14:54:32.424Z,78.99
2022-11-17T14:56:59.103Z,78.09
2022-11-17T14:59:25.778Z,77.82
2022-11-17T15:01:52.454Z,77.96
2022-11-17T15:04:48.756Z,77.98
2022-11-17T15:07:06.062Z,78.10
2022-11-17T15:09:33.198Z,78.07
2022-11-17T15:11:59.910Z,79.01
2022-11-17T15:14:26.554Z,77.95
2022-11-17T15:16:53.202Z,79.05
2022-11-17T15:19:19.929Z,79.04
2022-11-17T15:21:46.644Z,78.64
2022-11-17T15:24:13.801Z,78.68
2022-11-17T15:26:40.760Z,79.29
2022-11-17T15:29:07.464Z,78.64
2022-11-17T15:31:34.449Z,79.15
2022-11-17T15:34:01.315Z,79.58
2022-11-17T15:36:28.139Z,79.91
2022-11-17T15:38:54.841Z,79.95
2022-11-17T15:41:21.644Z,79.97
2022-11-17T15:43:48.620Z,79.30
2022-11-17T15:46:17.405Z,80.19
2022-11-17T15:48:45.851Z,80.16
2022-11-17T15:51:14.972Z,79.70
2022-11-17T15:53:42.915Z,79.72
2022-11-17T15:56:13.468Z,79.31
2022-11-17T15:58:41.579Z,79.26
2022-11-17T16:01:27.528Z,78.29
2022-11-17T16:04:11.266Z,78.41
2022-11-17T16:06:39.915Z,78.27
2022-11-17T16:09:07.579Z,78.15
2022-11-17T16:11:34.879Z,79.25
2022-11-17T16:14:02.431Z,78.75
2022-11-17T16:16:31.869Z,78.88
2022-11-17T16:18:58.760Z,77.82
2022-11-17T16:21:25.719Z,78.41
2022-11-17T16:23:54.815Z,79.99
2022-11-17T16:26:23.095Z,78.37
2022-11-17T16:28:50.134Z,77.44
2022-11-17T16:31:23.902Z,77.80
2022-11-17T16:33:55.604Z,78.79
2022-11-17T16:36:24.599Z,78.51
2022-11-17T16:39:01.525Z,78.81
2022-11-17T16:41:33.673Z,78.53
2022-11-17T16:44:01.893Z,77.67
2022-11-17T16:46:31.593Z,77.53
2022-11-17T16:49:03.774Z,77.74
2022-11-17T16:51:30.997Z,77.92
2022-11-17T16:54:00.600Z,78.42
2022-11-17T16:56:29.276Z,78.97
2022-11-17T16:58:56.249Z,79.72
2022-11-17T17:01:26.086Z,79.75
2022-11-17T17:04:00.461Z,80.10
2022-11-17T17:06:28.277Z,79.94
2022-11-17T17:09:05.540Z,81.12
2022-11-17T17:11:33.736Z,81.32
2022-11-17T17:14:04.426Z,81.65
2022-11-17T17:16:33.268Z,81.98
2022-11-17T17:19:01.872Z,82.37
2022-11-17T17:21:29.257Z,82.88
2022-11-17T17:23:57.064Z,83.14
2022-11-17T17:26:25.979Z,84.11
2022-11-17T17:28:56.177Z,84.30
2022-11-17T17:31:24.365Z,84.08
2022-11-17T17:33:51.997Z,84.38
2022-11-17T17:36:21.642Z,84.83
2022-11-17T17:38:54.951Z,85.52
2022-11-17T17:41:25.491Z,85.77
2022-11-17T17:43:58.199Z,85.88
2022-11-17T17:46:25.952Z,85.75
2022-11-17T17:48:52.747Z,86.00
2022-11-17T17:51:23.882Z,85.92
2022-11-17T17:53:51.472Z,86.63
2022-11-17T17:56:20.209Z,86.83
2022-11-17T17:58:48.954Z,86.27
2022-11-17T18:01:21.479Z,86.70
2022-11-17T18:03:49.951Z,87.06
2022-11-17T18:06:19.204Z,87.03
2022-11-17T18:08:46.613Z,87.47
2022-11-17T18:11:19.463Z,87.51
2022-11-17T18:13:48.428Z,87.41
2022-11-17T18:16:19.066Z,87.40
2022-11-17T18:18:46.410Z,87.80
2022-11-17T18:21:15.896Z,87.83
2022-11-17T18:23:43.247Z,88.11
2022-11-17T18:26:20.088Z,88.82
2022-11-17T18:28:58.075Z,88.01
2022-11-17T18:31:27.372Z,88.10
2022-11-17T18:33:59.845Z,88.06
2022-11-17T18:36:27.147Z,87.46
2022-11-17T18:38:53.949Z,87.91
2022-11-17T18:41:21.899Z,88.67
2022-11-17T18:43:49.072Z,88.63
2022-11-17T18:46:21.600Z,88.83
2022-11-17T18:48:51.644Z,88.63
2022-11-17T18:51:24.307Z,88.62
2022-11-17T18:53:52.959Z,88.77
2022-11-17T18:56:22.532Z,88.50
2022-11-17T18:58:49.545Z,88.17
2022-11-17T19:01:21.228Z,88.00
2022-11-17T19:03:50.455Z,87.89
2022-11-17T19:06:19.009Z,88.21
2022-11-17T19:08:49.442Z,87.97
2022-11-17T19:11:18.165Z,88.92
2022-11-17T19:13:45.852Z,88.70
2022-11-17T19:16:14.036Z,89.03
2022-11-17T19:18:41.944Z,88.00
2022-11-17T19:21:14.434Z,86.98
2022-11-17T19:23:47.982Z,87.27
2022-11-17T19:26:23.253Z,87.06
2022-11-17T19:28:50.519Z,87.86
2022-11-17T19:31:20.576Z,88.50
2022-11-17T19:33:48.584Z,87.10
2022-11-17T19:36:18.843Z,87.21
2022-11-17T19:38:58.026Z,86.63
2022-11-17T19:41:26.851Z,86.48
2022-11-17T19:43:54.995Z,86.36
2022-11-17T19:46:22.567Z,86.51
2022-11-17T19:48:49.375Z,86.70
2022-11-17T19:51:23.622Z,86.72
2022-11-17T19:53:52.646Z,87.09
2022-11-17T19:56:20.548Z,86.58
2022-11-17T19:58:48.030Z,87.00
2022-11-17T20:01:17.084Z,86.89
2022-11-17T20:03:44.712Z,87.22
2022-11-17T20:06:13.469Z,87.19
2022-11-17T20:08:40.379Z,86.78
2022-11-17T20:11:15.336Z,86.43
2022-11-17T20:13:42.619Z,86.58
2022-11-17T20:16:15.507Z,86.63
2022-11-17T20:18:43.983Z,86.44
2022-11-17T20:21:13.970Z,86.81
2022-11-17T20:23:41.955Z,86.63
2022-11-17T20:26:18.702Z,86.75
2022-11-17T20:28:46.008Z,86.93
2022-11-17T20:31:15.313Z,87.38
2022-11-17T20:33:43.646Z,87.47
2022-11-17T20:36:16.848Z,87.46
2022-11-17T20:38:43.789Z,87.88
2022-11-17T20:41:10.891Z,87.10
2022-11-17T20:43:37.640Z,87.77
2022-11-17T20:46:04.515Z,87.66
2022-11-17T20:48:34.020Z,88.33
2022-11-17T20:51:04.795Z,88.06
2022-11-17T20:53:32.226Z,87.48
2022-11-17T20:56:00.048Z,87.39
2022-11-17T20:58:27.733Z,87.64
2022-11-17T21:00:55.421Z,88.74
2022-11-17T21:03:23.263Z,88.72
2022-11-17T21:06:01.803Z,87.80
2022-11-17T21:08:32.084Z,87.16
2022-11-17T21:11:04.374Z,87.39
2022-11-17T21:13:32.715Z,87.54
2022-11-17T21:16:11.511Z,87.03
2022-11-17T21:18:44.505Z,87.38
2022-11-17T21:21:11.551Z,87.04
2022-11-17T21:23:39.985Z,87.78
2022-11-17T21:26:19.105Z,87.60
2022-11-17T21:28:46.744Z,86.83
2022-11-17T21:31:16.264Z,86.90
2022-11-17T21:33:44.214Z,87.10
2022-11-17T21:36:16.987Z,87.17
2022-11-17T21:38:45.403Z,87.13
2022-11-17T21:41:13.417Z,87.55
2022-11-17T21:43:41.980Z,86.55
2022-11-17T21:46:17.807Z,87.38
2022-11-17T21:48:45.235Z,86.79
2022-11-17T21:51:35.376Z,86.89
2022-11-17T21:54:05.605Z,87.00
2022-11-17T21:56:32.824Z,87.01
2022-11-17T21:59:05.248Z,86.67
2022-11-17T22:01:33.055Z,86.57
2022-11-17T22:04:00.158Z,86.62
2022-11-17T22:06:27.538Z,87.19
2022-11-17T22:08:55.827Z,87.83
2022-11-17T22:11:37.987Z,87.02
2022-11-17T22:14:14.273Z,87.56
2022-11-17T22:16:43.354Z,86.63
2022-11-17T22:19:11.328Z,86.57
2022-11-17T22:21:39.168Z,86.86
2022-11-17T22:24:07.879Z,86.23
2022-11-17T22:26:38.110Z,87.01
2022-11-17T22:29:06.567Z,88.32
2022-11-17T22:31:33.319Z,87.36
2022-11-17T22:33:59.967Z,87.29
2022-11-17T22:36:26.652Z,86.78
2022-11-17T22:38:53.631Z,87.03
2022-11-17T22:41:21.644Z,87.28
2022-11-17T22:43:52.797Z,87.97
2022-11-17T22:46:20.748Z,87.56
2022-11-17T22:48:47.955Z,87.25
2022-11-17T22:51:38.661Z,87.39
2022-11-17T22:54:06.593Z,87.73
2022-11-17T22:56:33.632Z,87.79
2022-11-17T22:59:00.973Z,87.46
2022-11-17T23:01:27.724Z,87.67
2022-11-17T23:03:54.684Z,87.73
2022-11-17T23:06:22.751Z,87.79
2022-11-17T23:08:49.684Z,88.49
2022-11-17T23:11:36.042Z,88.12
2022-11-17T23:14:03.746Z,87.70
2022-11-17T23:16:30.762Z,87.66
2022-11-17T23:18:57.707Z,87.40
2022-11-17T23:21:25.173Z,87.25
2022-11-17T23:23:52.001Z,88.01
2022-11-17T23:26:18.772Z,88.57
2022-11-17T23:28:45.527Z,89.05
2022-11-17T23:31:16.729Z,88.63
2022-11-17T23:33:45.327Z,88.35
2022-11-17T23:36:17.231Z,89.26
2022-11-17T23:38:44.390Z,88.94
2022-11-17T23:41:13.802Z,89.02
2022-11-17T23:43:40.901Z,88.97
2022-11-17T23:46:11.473Z,89.03
2022-11-17T23:48:38.250Z,88.29
2022-11-17T23:51:13.303Z,87.54
2022-11-17T23:53:40.543Z,88.48
2022-11-17T23:56:08.378Z,88.10
2022-11-17T23:58:35.583Z,88.38
